createdAt,value
2017-08-06T00:00:09.218Z,26.3
2017-08-06T00:01:09.867Z,26.3
2017-08-06T00:02:09.533Z,26.26
2017-08-06T00:03:09.940Z,26.29
2017-08-06T00:04:09.641Z,26.28
2017-08-06T00:05:09.669Z,26.28
2017-08-06T00:06:10.034Z,26.3
2017-08-06T00:07:10.296Z,26.26
2017-08-06T00:08:09.764Z,26.3
2017-08-06T00:09:09.795Z,26.25
2017-08-06T00:10:09.802Z,26.29
2017-08-06T00:11:09.855Z,26.25
2017-08-06T00:12:09.860Z,26.18
2017-08-06T00:13:09.899Z,26.28
2017-08-06T00:14:09.929Z,26.23
2017-08-06T00:15:09.958Z,26.18
2017-08-06T00:16:09.680Z,26.28
2017-08-06T00:17:09.960Z,26.17
2017-08-06T00:18:10.356Z,26.18
2017-08-06T00:19:10.385Z,26.15
2017-08-06T00:20:09.791Z,26.15
2017-08-06T00:21:09.819Z,26.17
2017-08-06T00:22:10.740Z,26.25
2017-08-06T00:23:10.496Z,26.18
2017-08-06T00:24:09.910Z,26.26
2017-08-06T00:25:10.569Z,26.18
2017-08-06T00:26:09.961Z,26.23
2017-08-06T00:27:10.552Z,26.25
2017-08-06T00:28:10.020Z,26.2
2017-08-06T00:29:10.354Z,26.25
2017-08-06T00:30:10.703Z,26.2
2017-08-06T00:31:10.108Z,26.2
2017-08-06T00:32:10.392Z,26.2
2017-08-06T00:33:10.486Z,26.25
2017-08-06T00:34:10.186Z,26.18
2017-08-06T00:35:10.527Z,26.25
2017-08-06T00:36:10.564Z,26.2
2017-08-06T00:37:11.254Z,26.15
2017-08-06T00:38:10.933Z,26.23
2017-08-06T00:39:10.957Z,26.25
2017-08-06T00:40:10.678Z,26.23
2017-08-06T00:41:10.700Z,26.13
2017-08-06T00:42:10.728Z,26.2
2017-08-06T00:43:11.078Z,26.17
2017-08-06T00:44:10.478Z,26.2
2017-08-06T00:45:11.135Z,26.2
2017-08-06T00:46:11.155Z,26.23
2017-08-06T00:47:11.180Z,26.17
2017-08-06T00:48:10.902Z,26.23
2017-08-06T00:49:10.926Z,26.26
2017-08-06T00:50:10.655Z,26.17
2017-08-06T00:51:10.984Z,26.2
2017-08-06T00:52:11.016Z,26.13
2017-08-06T00:53:11.343Z,26.18
2017-08-06T00:54:11.378Z,26.18
2017-08-06T00:55:11.098Z,26.13
2017-08-06T00:56:11.124Z,26.15
2017-08-06T00:57:11.158Z,26.2
2017-08-06T00:58:11.178Z,26.12
2017-08-06T00:59:11.206Z,26.12
2017-08-06T01:00:11.243Z,26.09
2017-08-06T01:01:11.292Z,26.1
2017-08-06T01:02:11.628Z,26.09
2017-08-06T01:03:11.325Z,26.09
2017-08-06T01:04:11.346Z,26.1
2017-08-06T01:05:11.382Z,26.09
2017-08-06T01:06:11.721Z,26.1
2017-08-06T01:07:11.125Z,26.1
2017-08-06T01:08:11.462Z,26.06
2017-08-06T01:09:11.529Z,26.06
2017-08-06T01:10:12.034Z,26.12
2017-08-06T01:11:12.110Z,26.09
2017-08-06T01:12:11.893Z,26.1
2017-08-06T01:13:11.295Z,26.1
2017-08-06T01:14:11.635Z,26.15
2017-08-06T01:15:11.665Z,26.1
2017-08-06T01:16:11.693Z,26.15
2017-08-06T01:17:11.725Z,26.12
2017-08-06T01:18:11.443Z,26.07
2017-08-06T01:19:11.787Z,26.02
2017-08-06T01:20:11.812Z,26.18
2017-08-06T01:21:11.847Z,26.07
2017-08-06T01:22:11.878Z,26.07
2017-08-06T01:23:11.578Z,26.01
2017-08-06T01:24:11.922Z,26.1
2017-08-06T01:25:12.264Z,26.05
2017-08-06T01:26:11.984Z,26.02
2017-08-06T01:27:12.313Z,26.05
2017-08-06T01:28:11.723Z,26.07
2017-08-06T01:29:11.759Z,25.99
2017-08-06T01:30:12.093Z,26.09
2017-08-06T01:31:11.809Z,26.05
2017-08-06T01:32:12.146Z,26.05
2017-08-06T01:33:12.173Z,26.01
2017-08-06T01:34:12.511Z,26.06
2017-08-06T01:35:12.547Z,26.05
2017-08-06T01:36:12.261Z,26.05
2017-08-06T01:37:12.606Z,26.02
2017-08-06T01:38:12.327Z,26.02
2017-08-06T01:39:12.345Z,26.06
2017-08-06T01:40:12.372Z,26.01
2017-08-06T01:41:12.098Z,25.91
2017-08-06T01:42:12.117Z,26.02
2017-08-06T01:43:12.406Z,26.02
2017-08-06T01:44:12.486Z,25.95
2017-08-06T01:45:12.521Z,25.94
2017-08-06T01:46:12.553Z,26.06
2017-08-06T01:47:12.261Z,25.99
2017-08-06T01:48:12.911Z,25.97
2017-08-06T01:49:12.949Z,26.01
2017-08-06T01:50:12.351Z,26.01
2017-08-06T01:51:12.695Z,25.92
2017-08-06T01:52:12.718Z,25.99
2017-08-06T01:53:13.049Z,25.95
2017-08-06T01:54:12.767Z,25.88
2017-08-06T01:55:12.812Z,26.05
2017-08-06T01:56:13.141Z,25.92
2017-08-06T01:57:13.174Z,25.95
2017-08-06T01:58:13.494Z,25.92
2017-08-06T01:59:13.227Z,25.92
2017-08-06T02:00:13.261Z,25.91
2017-08-06T02:01:12.965Z,25.97
2017-08-06T02:02:13.335Z,25.9
2017-08-06T02:03:13.341Z,25.9
2017-08-06T02:04:13.383Z,25.91
2017-08-06T02:05:13.091Z,25.82
2017-08-06T02:06:13.113Z,25.88
2017-08-06T02:07:13.461Z,25.95
2017-08-06T02:08:13.467Z,25.9
2017-08-06T02:09:13.508Z,25.9
2017-08-06T02:10:13.541Z,25.87
2017-08-06T02:11:13.569Z,25.9
2017-08-06T02:12:12.968Z,25.94
2017-08-06T02:13:13.607Z,25.87
2017-08-06T02:14:13.654Z,25.77
2017-08-06T02:15:13.053Z,25.87
2017-08-06T02:16:13.397Z,25.77
2017-08-06T02:17:13.424Z,25.87
2017-08-06T02:18:13.446Z,25.87
2017-08-06T02:19:13.165Z,25.77
2017-08-06T02:20:13.808Z,25.77
2017-08-06T02:21:13.220Z,25.8
2017-08-06T02:22:13.249Z,25.76
2017-08-06T02:23:13.839Z,25.75
2017-08-06T02:24:13.940Z,25.8
2017-08-06T02:25:13.957Z,25.77
2017-08-06T02:26:13.370Z,25.77
2017-08-06T02:27:13.703Z,25.8
2017-08-06T02:28:13.979Z,25.8
2017-08-06T02:29:13.765Z,25.79
2017-08-06T02:30:14.110Z,25.79
2017-08-06T02:31:13.819Z,25.82
2017-08-06T02:32:13.854Z,25.76
2017-08-06T02:33:14.177Z,25.8
2017-08-06T02:34:13.600Z,25.72
2017-08-06T02:35:14.281Z,25.77
2017-08-06T02:36:13.958Z,25.77
2017-08-06T02:37:13.680Z,25.77
2017-08-06T02:38:14.280Z,25.75
2017-08-06T02:39:14.039Z,25.76
2017-08-06T02:40:14.373Z,25.73
2017-08-06T02:41:13.794Z,25.72
2017-08-06T02:42:14.446Z,25.75
2017-08-06T02:43:14.724Z,25.76
2017-08-06T02:44:14.184Z,25.76
2017-08-06T02:45:13.903Z,25.73
2017-08-06T02:46:14.243Z,25.77
2017-08-06T02:47:14.578Z,25.72
2017-08-06T02:48:14.596Z,25.75
2017-08-06T02:49:14.326Z,25.72
2017-08-06T02:50:14.357Z,25.7
2017-08-06T02:51:14.690Z,25.72
2017-08-06T02:52:14.091Z,25.67
2017-08-06T02:53:15.001Z,25.69
2017-08-06T02:54:14.157Z,25.67
2017-08-06T02:55:14.496Z,25.7
2017-08-06T02:56:14.527Z,25.6
2017-08-06T02:57:14.556Z,25.64
2017-08-06T02:58:14.931Z,25.64
2017-08-06T02:59:14.914Z,25.55
2017-08-06T03:00:14.318Z,25.61
2017-08-06T03:01:14.661Z,25.58
2017-08-06T03:02:14.368Z,25.67
2017-08-06T03:03:14.972Z,25.58
2017-08-06T03:04:14.749Z,25.61
2017-08-06T03:05:14.467Z,25.61
2017-08-06T03:06:14.803Z,25.58
2017-08-06T03:07:14.516Z,25.57
2017-08-06T03:08:15.151Z,25.55
2017-08-06T03:09:14.578Z,25.57
2017-08-06T03:10:14.602Z,25.5
2017-08-06T03:11:15.272Z,25.5
2017-08-06T03:12:14.660Z,25.47
2017-08-06T03:13:15.014Z,25.47
2017-08-06T03:14:15.333Z,25.5
2017-08-06T03:15:14.743Z,25.43
2017-08-06T03:16:15.396Z,25.46
2017-08-06T03:17:14.800Z,25.51
2017-08-06T03:18:14.828Z,25.5
2017-08-06T03:19:14.858Z,25.4
2017-08-06T03:20:15.507Z,25.45
2017-08-06T03:21:15.228Z,25.5
2017-08-06T03:22:15.568Z,25.42
2017-08-06T03:23:15.595Z,25.5
2017-08-06T03:24:15.314Z,25.43
2017-08-06T03:25:15.335Z,25.51
2017-08-06T03:26:15.060Z,25.54
2017-08-06T03:27:15.080Z,25.46
2017-08-06T03:28:15.425Z,25.47
2017-08-06T03:29:15.746Z,25.43
2017-08-06T03:30:15.168Z,25.46
2017-08-06T03:31:15.199Z,25.39
2017-08-06T03:32:15.220Z,25.39
2017-08-06T03:33:15.253Z,25.38
2017-08-06T03:34:15.886Z,25.4
2017-08-06T03:35:15.931Z,25.43
2017-08-06T03:36:15.653Z,25.46
2017-08-06T03:37:15.984Z,25.47
2017-08-06T03:38:15.701Z,25.45
2017-08-06T03:39:15.724Z,25.35
2017-08-06T03:40:15.761Z,25.4
2017-08-06T03:41:15.789Z,25.42
2017-08-06T03:42:16.132Z,25.39
2017-08-06T03:43:15.850Z,25.4
2017-08-06T03:44:16.473Z,25.42
2017-08-06T03:45:16.206Z,25.4
2017-08-06T03:46:15.615Z,25.39
2017-08-06T03:47:16.281Z,25.35
2017-08-06T03:48:15.982Z,25.3
2017-08-06T03:49:15.996Z,25.42
2017-08-06T03:50:15.744Z,25.45
2017-08-06T03:51:16.387Z,25.45
2017-08-06T03:52:16.092Z,25.42
2017-08-06T03:53:16.121Z,25.42
2017-08-06T03:54:16.407Z,25.39
2017-08-06T03:55:16.170Z,25.5
2017-08-06T03:56:15.906Z,25.45
2017-08-06T03:57:16.541Z,25.39
2017-08-06T03:58:16.262Z,25.42
2017-08-06T03:59:16.278Z,25.4
2017-08-06T04:00:16.003Z,25.4
2017-08-06T04:01:16.037Z,25.4
2017-08-06T04:02:16.372Z,25.42
2017-08-06T04:03:16.706Z,25.38
2017-08-06T04:04:16.726Z,25.39
2017-08-06T04:05:16.767Z,25.39
2017-08-06T04:06:16.180Z,25.45
2017-08-06T04:07:16.833Z,25.35
2017-08-06T04:08:16.538Z,25.46
2017-08-06T04:09:16.568Z,25.42
2017-08-06T04:10:16.598Z,25.46
2017-08-06T04:11:16.312Z,25.4
2017-08-06T04:12:16.341Z,25.32
2017-08-06T04:13:16.668Z,25.38
2017-08-06T04:14:17.010Z,25.45
2017-08-06T04:15:16.736Z,25.36
2017-08-06T04:16:16.763Z,25.33
2017-08-06T04:17:16.793Z,25.36
2017-08-06T04:18:16.813Z,25.45
2017-08-06T04:19:17.102Z,25.36
2017-08-06T04:20:16.568Z,25.36
2017-08-06T04:21:17.212Z,25.36
2017-08-06T04:22:16.928Z,25.36
2017-08-06T04:23:16.646Z,25.45
2017-08-06T04:24:17.286Z,25.35
2017-08-06T04:25:17.016Z,25.36
2017-08-06T04:26:17.357Z,25.33
2017-08-06T04:27:16.759Z,25.38
2017-08-06T04:28:17.110Z,25.39
2017-08-06T04:29:17.738Z,25.45
2017-08-06T04:30:17.155Z,25.38
2017-08-06T04:31:17.493Z,25.38
2017-08-06T04:32:16.906Z,25.38
2017-08-06T04:33:17.234Z,25.35
2017-08-06T04:34:17.884Z,25.36
2017-08-06T04:35:17.290Z,25.32
2017-08-06T04:36:17.640Z,25.33
2017-08-06T04:37:17.038Z,25.35
2017-08-06T04:38:17.063Z,25.4
2017-08-06T04:39:17.702Z,25.33
2017-08-06T04:40:17.744Z,25.38
2017-08-06T04:41:17.461Z,25.36
2017-08-06T04:42:17.499Z,25.46
2017-08-06T04:43:17.819Z,25.35
2017-08-06T04:44:17.794Z,25.35
2017-08-06T04:45:17.264Z,25.38
2017-08-06T04:46:17.301Z,25.36
2017-08-06T04:47:17.629Z,25.35
2017-08-06T04:48:17.339Z,25.33
2017-08-06T04:49:18.303Z,25.35
2017-08-06T04:50:18.035Z,25.39
2017-08-06T04:51:18.072Z,25.42
2017-08-06T04:52:17.774Z,25.32
2017-08-06T04:53:18.132Z,25.32
2017-08-06T04:54:17.511Z,25.36
2017-08-06T04:55:17.849Z,25.35
2017-08-06T04:56:18.199Z,25.33
2017-08-06T04:57:18.213Z,25.33
2017-08-06T04:58:17.651Z,25.21
2017-08-06T04:59:18.283Z,25.33
2017-08-06T05:00:17.686Z,25.33
2017-08-06T05:01:18.328Z,25.32
2017-08-06T05:02:17.734Z,25.36
2017-08-06T05:03:18.069Z,25.38
2017-08-06T05:04:17.799Z,25.35
2017-08-06T05:05:18.138Z,25.33
2017-08-06T05:06:18.478Z,25.33
2017-08-06T05:07:18.196Z,25.36
2017-08-06T05:08:18.208Z,25.3
2017-08-06T05:09:18.244Z,25.35
2017-08-06T05:10:18.273Z,25.32
2017-08-06T05:11:17.987Z,25.38
2017-08-06T05:12:18.021Z,25.35
2017-08-06T05:13:18.359Z,25.35
2017-08-06T05:14:18.384Z,25.42
2017-08-06T05:15:18.708Z,25.33
2017-08-06T05:16:18.449Z,25.38
2017-08-06T05:17:18.471Z,25.36
2017-08-06T05:18:18.487Z,25.38
2017-08-06T05:19:18.525Z,25.36
2017-08-06T05:20:18.802Z,25.35
2017-08-06T05:21:18.585Z,25.38
2017-08-06T05:22:18.291Z,25.36
2017-08-06T05:23:18.628Z,25.38
2017-08-06T05:24:18.353Z,25.25
2017-08-06T05:25:18.996Z,25.25
2017-08-06T05:26:18.722Z,25.36
2017-08-06T05:27:18.742Z,25.33
2017-08-06T05:28:19.070Z,25.39
2017-08-06T05:29:18.799Z,25.33
2017-08-06T05:30:19.129Z,25.33
2017-08-06T05:31:18.543Z,25.32
2017-08-06T05:32:18.876Z,25.38
2017-08-06T05:33:18.952Z,25.33
2017-08-06T05:34:18.936Z,25.38
2017-08-06T05:35:19.520Z,25.38
2017-08-06T05:36:19.301Z,25.36
2017-08-06T05:37:19.023Z,25.33
2017-08-06T05:38:19.050Z,25.4
2017-08-06T05:39:18.781Z,25.4
2017-08-06T05:40:19.093Z,25.45
2017-08-06T05:41:19.137Z,25.46
2017-08-06T05:42:19.474Z,25.36
2017-08-06T05:43:19.540Z,25.36
2017-08-06T05:44:19.229Z,25.38
2017-08-06T05:45:19.556Z,25.38
2017-08-06T05:46:19.289Z,25.39
2017-08-06T05:47:19.303Z,25.38
2017-08-06T05:48:19.012Z,25.4
2017-08-06T05:49:19.655Z,25.39
2017-08-06T05:50:19.373Z,25.39
2017-08-06T05:51:19.415Z,25.39
2017-08-06T05:52:19.447Z,25.38
2017-08-06T05:53:19.468Z,25.46
2017-08-06T05:54:19.503Z,25.47
2017-08-06T05:55:19.878Z,25.47
2017-08-06T05:56:19.546Z,25.4
2017-08-06T05:57:19.580Z,25.45
2017-08-06T05:58:19.607Z,25.42
2017-08-06T05:59:19.325Z,25.35
2017-08-06T06:00:20.274Z,25.5
2017-08-06T06:01:19.388Z,25.47
2017-08-06T06:02:20.028Z,25.42
2017-08-06T06:03:19.748Z,25.42
2017-08-06T06:04:19.782Z,25.39
2017-08-06T06:05:19.489Z,25.38
2017-08-06T06:06:19.514Z,25.35
2017-08-06T06:07:20.178Z,25.43
2017-08-06T06:08:19.891Z,25.36
2017-08-06T06:09:19.921Z,25.38
2017-08-06T06:10:19.630Z,25.32
2017-08-06T06:11:19.970Z,25.36
2017-08-06T06:12:19.996Z,25.38
2017-08-06T06:13:20.340Z,25.35
2017-08-06T06:14:20.062Z,25.39
2017-08-06T06:15:20.395Z,25.39
2017-08-06T06:16:20.110Z,25.39
2017-08-06T06:17:20.460Z,25.39
2017-08-06T06:18:20.172Z,25.33
2017-08-06T06:19:20.202Z,25.39
2017-08-06T06:20:20.540Z,25.36
2017-08-06T06:21:20.578Z,25.36
2017-08-06T06:22:20.284Z,25.36
2017-08-06T06:23:20.623Z,25.4
2017-08-06T06:24:20.335Z,25.36
2017-08-06T06:25:20.373Z,25.33
2017-08-06T06:26:20.715Z,25.39
2017-08-06T06:27:20.418Z,25.35
2017-08-06T06:28:20.460Z,25.46
2017-08-06T06:29:20.470Z,25.39
2017-08-06T06:30:20.192Z,25.38
2017-08-06T06:31:20.827Z,25.36
2017-08-06T06:32:20.552Z,25.36
2017-08-06T06:33:20.592Z,25.38
2017-08-06T06:34:20.926Z,25.32
2017-08-06T06:35:20.637Z,25.36
2017-08-06T06:36:20.986Z,25.35
2017-08-06T06:37:20.698Z,25.36
2017-08-06T06:38:21.043Z,25.43
2017-08-06T06:39:20.754Z,25.45
2017-08-06T06:40:20.783Z,25.35
2017-08-06T06:41:21.059Z,25.35
2017-08-06T06:42:20.832Z,25.43
2017-08-06T06:43:20.560Z,25.43
2017-08-06T06:44:20.898Z,25.36
2017-08-06T06:45:20.922Z,25.3
2017-08-06T06:46:21.208Z,25.51
2017-08-06T06:47:20.977Z,25.39
2017-08-06T06:48:21.009Z,25.38
2017-08-06T06:49:20.723Z,25.36
2017-08-06T06:50:21.067Z,25.38
2017-08-06T06:51:21.388Z,25.39
2017-08-06T06:52:21.107Z,25.35
2017-08-06T06:53:20.833Z,25.32
2017-08-06T06:54:21.498Z,25.42
2017-08-06T06:55:21.506Z,25.3
2017-08-06T06:56:21.223Z,25.39
2017-08-06T06:57:21.252Z,25.39
2017-08-06T06:58:21.600Z,25.35
2017-08-06T06:59:21.003Z,25.38
2017-08-06T07:00:21.027Z,25.35
2017-08-06T07:01:21.624Z,25.35
2017-08-06T07:02:21.389Z,25.32
2017-08-06T07:03:21.426Z,25.35
2017-08-06T07:04:21.774Z,25.36
2017-08-06T07:05:21.787Z,25.33
2017-08-06T07:06:21.759Z,25.35
2017-08-06T07:07:21.225Z,25.36
2017-08-06T07:08:21.566Z,25.38
2017-08-06T07:09:21.590Z,25.4
2017-08-06T07:10:21.619Z,25.36
2017-08-06T07:11:22.208Z,25.38
2017-08-06T07:12:21.989Z,25.38
2017-08-06T07:13:21.390Z,25.35
2017-08-06T07:14:22.048Z,25.36
2017-08-06T07:15:22.071Z,25.39
2017-08-06T07:16:22.098Z,25.42
2017-08-06T07:17:21.821Z,25.36
2017-08-06T07:18:21.861Z,25.32
2017-08-06T07:19:22.190Z,25.42
2017-08-06T07:20:22.216Z,25.36
2017-08-06T07:21:21.615Z,25.38
2017-08-06T07:22:21.650Z,25.35
2017-08-06T07:23:22.294Z,25.39
2017-08-06T07:24:21.703Z,25.35
2017-08-06T07:25:22.355Z,25.46
2017-08-06T07:26:22.069Z,25.45
2017-08-06T07:27:22.104Z,25.38
2017-08-06T07:28:22.118Z,25.46
2017-08-06T07:29:22.150Z,25.38
2017-08-06T07:30:22.180Z,25.35
2017-08-06T07:31:22.209Z,25.33
2017-08-06T07:32:22.528Z,25.35
2017-08-06T07:33:22.581Z,25.38
2017-08-06T07:34:22.294Z,25.38
2017-08-06T07:35:22.626Z,25.36
2017-08-06T07:36:22.661Z,25.38
2017-08-06T07:37:22.944Z,25.4
2017-08-06T07:38:22.734Z,25.38
2017-08-06T07:39:22.434Z,25.36
2017-08-06T07:40:22.455Z,25.39
2017-08-06T07:41:22.797Z,25.36
2017-08-06T07:42:23.190Z,25.38
2017-08-06T07:43:22.542Z,25.33
2017-08-06T07:44:22.566Z,25.32
2017-08-06T07:45:22.615Z,25.33
2017-08-06T07:46:22.624Z,25.36
2017-08-06T07:47:22.953Z,25.3
2017-08-06T07:48:22.994Z,25.36
2017-08-06T07:49:23.022Z,25.36
2017-08-06T07:50:22.415Z,25.35
2017-08-06T07:51:22.759Z,25.39
2017-08-06T07:52:23.358Z,25.32
2017-08-06T07:53:23.134Z,25.33
2017-08-06T07:54:22.854Z,25.42
2017-08-06T07:55:23.188Z,25.35
2017-08-06T07:56:22.921Z,25.38
2017-08-06T07:57:23.257Z,25.39
2017-08-06T07:58:23.270Z,25.38
2017-08-06T07:59:22.991Z,25.43
2017-08-06T08:00:22.704Z,25.35
2017-08-06T08:01:23.356Z,25.33
2017-08-06T08:02:23.379Z,25.3
2017-08-06T08:03:23.414Z,25.39
2017-08-06T08:04:23.443Z,25.3
2017-08-06T08:05:23.165Z,25.36
2017-08-06T08:06:23.217Z,25.36
2017-08-06T08:07:23.775Z,25.39
2017-08-06T08:08:23.247Z,25.32
2017-08-06T08:09:23.583Z,25.35
2017-08-06T08:10:23.300Z,25.38
2017-08-06T08:11:23.325Z,25.35
2017-08-06T08:12:23.297Z,25.36
2017-08-06T08:13:23.692Z,25.4
2017-08-06T08:14:23.727Z,25.36
2017-08-06T08:15:23.123Z,25.33
2017-08-06T08:16:23.781Z,25.35
2017-08-06T08:17:24.104Z,25.39
2017-08-06T08:18:23.206Z,25.35
2017-08-06T08:19:23.544Z,25.38
2017-08-06T08:20:23.892Z,25.39
2017-08-06T08:21:23.602Z,25.39
2017-08-06T08:22:24.197Z,25.4
2017-08-06T08:23:23.984Z,25.43
2017-08-06T08:24:24.003Z,25.47
2017-08-06T08:25:24.032Z,25.43
2017-08-06T08:26:24.065Z,25.42
2017-08-06T08:27:23.785Z,25.46
2017-08-06T08:28:23.799Z,25.47
2017-08-06T08:29:24.148Z,25.42
2017-08-06T08:30:24.172Z,25.5
2017-08-06T08:31:23.569Z,25.51
2017-08-06T08:32:23.915Z,25.58
2017-08-06T08:33:23.943Z,25.46
2017-08-06T08:34:24.276Z,25.47
2017-08-06T08:35:23.992Z,25.46
2017-08-06T08:36:24.338Z,25.55
2017-08-06T08:37:24.370Z,25.54
2017-08-06T08:38:24.392Z,25.6
2017-08-06T08:39:23.792Z,25.58
2017-08-06T08:40:24.133Z,25.55
2017-08-06T08:41:23.854Z,25.52
2017-08-06T08:42:24.192Z,25.54
2017-08-06T08:43:24.835Z,25.55
2017-08-06T08:44:24.272Z,25.52
2017-08-06T08:45:24.278Z,25.58
2017-08-06T08:46:24.617Z,25.58
2017-08-06T08:47:24.335Z,25.55
2017-08-06T08:48:24.663Z,25.54
2017-08-06T08:49:24.385Z,25.58
2017-08-06T08:50:24.726Z,25.57
2017-08-06T08:51:24.757Z,25.62
2017-08-06T08:52:24.474Z,25.62
2017-08-06T08:53:24.760Z,25.6
2017-08-06T08:54:24.532Z,25.58
2017-08-06T08:55:24.865Z,25.52
2017-08-06T08:56:24.582Z,25.61
2017-08-06T08:57:24.614Z,25.61
2017-08-06T08:58:25.210Z,25.69
2017-08-06T08:59:24.975Z,25.67
2017-08-06T09:00:25.005Z,25.64
2017-08-06T09:01:24.414Z,25.72
2017-08-06T09:02:24.448Z,25.7
2017-08-06T09:03:25.085Z,25.67
2017-08-06T09:04:25.125Z,25.72
2017-08-06T09:05:25.146Z,25.73
2017-08-06T09:06:24.878Z,25.77
2017-08-06T09:07:24.907Z,25.79
2017-08-06T09:08:25.533Z,25.76
2017-08-06T09:09:25.273Z,25.76
2017-08-06T09:10:25.292Z,25.8
2017-08-06T09:11:25.006Z,25.77
2017-08-06T09:12:25.347Z,25.83
2017-08-06T09:13:25.324Z,25.88
2017-08-06T09:14:25.101Z,25.8
2017-08-06T09:15:24.809Z,25.87
2017-08-06T09:16:25.146Z,25.88
2017-08-06T09:17:25.499Z,25.88
2017-08-06T09:18:25.823Z,25.83
2017-08-06T09:19:25.235Z,25.91
2017-08-06T09:20:25.573Z,25.91
2017-08-06T09:21:25.604Z,25.91
2017-08-06T09:22:25.319Z,25.9
2017-08-06T09:23:25.906Z,25.88
2017-08-06T09:24:25.373Z,25.9
2017-08-06T09:25:25.414Z,25.88
2017-08-06T09:26:25.737Z,25.87
2017-08-06T09:27:25.491Z,25.83
2017-08-06T09:28:25.750Z,25.85
2017-08-06T09:29:25.821Z,25.92
2017-08-06T09:30:25.541Z,25.87
2017-08-06T09:31:25.883Z,25.85
2017-08-06T09:32:25.936Z,25.92
2017-08-06T09:33:25.933Z,25.9
2017-08-06T09:34:25.657Z,25.91
2017-08-06T09:35:25.684Z,25.94
2017-08-06T09:36:25.719Z,25.88
2017-08-06T09:37:25.739Z,25.92
2017-08-06T09:38:26.019Z,25.99
2017-08-06T09:39:26.100Z,25.91
2017-08-06T09:40:25.825Z,25.91
2017-08-06T09:41:26.167Z,25.97
2017-08-06T09:42:26.196Z,25.91
2017-08-06T09:43:26.167Z,25.87
2017-08-06T09:44:25.936Z,25.94
2017-08-06T09:45:25.965Z,25.91
2017-08-06T09:46:26.304Z,25.94
2017-08-06T09:47:26.336Z,25.92
2017-08-06T09:48:26.616Z,25.94
2017-08-06T09:49:26.384Z,25.94
2017-08-06T09:50:26.421Z,25.97
2017-08-06T09:51:26.469Z,25.87
2017-08-06T09:52:26.476Z,25.85
2017-08-06T09:53:26.754Z,25.94
2017-08-06T09:54:26.537Z,25.9
2017-08-06T09:55:26.562Z,25.9
2017-08-06T09:56:26.282Z,25.95
2017-08-06T09:57:26.619Z,25.94
2017-08-06T09:58:26.900Z,25.94
2017-08-06T09:59:26.673Z,25.87
2017-08-06T10:00:26.074Z,25.91
2017-08-06T10:01:26.105Z,25.92
2017-08-06T10:02:26.767Z,25.97
2017-08-06T10:03:27.036Z,25.97
2017-08-06T10:04:26.505Z,25.94
2017-08-06T10:05:26.534Z,26.02
2017-08-06T10:06:26.559Z,25.99
2017-08-06T10:07:26.591Z,25.91
2017-08-06T10:08:26.560Z,26.02
2017-08-06T10:09:26.957Z,26.02
2017-08-06T10:10:26.677Z,25.99
2017-08-06T10:11:27.018Z,26.06
2017-08-06T10:12:26.726Z,26.06
2017-08-06T10:13:27.384Z,26.07
2017-08-06T10:14:26.789Z,25.99
2017-08-06T10:15:27.130Z,26.05
2017-08-06T10:16:27.153Z,26.07
2017-08-06T10:17:26.873Z,26.06
2017-08-06T10:18:27.476Z,26.02
2017-08-06T10:19:26.936Z,26.02
2017-08-06T10:20:26.634Z,26.05
2017-08-06T10:21:27.317Z,26.12
2017-08-06T10:22:27.327Z,26.1
2017-08-06T10:23:27.653Z,26.07
2017-08-06T10:24:27.382Z,26.1
2017-08-06T10:25:27.422Z,26.09
2017-08-06T10:26:27.437Z,26.13
2017-08-06T10:27:27.467Z,26.12
2017-08-06T10:28:26.869Z,26.07
2017-08-06T10:29:27.534Z,26.13
2017-08-06T10:30:27.553Z,26.18
2017-08-06T10:31:27.591Z,26.15
2017-08-06T10:32:27.300Z,26.13
2017-08-06T10:33:27.638Z,26.21
2017-08-06T10:34:27.673Z,26.28
2017-08-06T10:35:27.698Z,26.25
2017-08-06T10:36:27.094Z,26.17
2017-08-06T10:37:27.761Z,26.21
2017-08-06T10:38:27.469Z,26.25
2017-08-06T10:39:27.495Z,26.15
2017-08-06T10:40:27.525Z,26.2
2017-08-06T10:41:27.551Z,26.2
2017-08-06T10:42:27.888Z,26.26
2017-08-06T10:43:27.291Z,26.23
2017-08-06T10:44:28.211Z,26.25
2017-08-06T10:45:27.983Z,26.23
2017-08-06T10:46:27.700Z,26.23
2017-08-06T10:47:27.742Z,26.3
2017-08-06T10:48:27.445Z,26.32
2017-08-06T10:49:28.335Z,26.23
2017-08-06T10:50:27.810Z,26.3
2017-08-06T10:51:28.153Z,26.33
2017-08-06T10:52:27.855Z,26.35
2017-08-06T10:53:27.892Z,26.32
2017-08-06T10:54:28.223Z,26.33
2017-08-06T10:55:28.258Z,26.37
2017-08-06T10:56:28.290Z,26.35
2017-08-06T10:57:27.701Z,26.39
2017-08-06T10:58:27.733Z,26.39
2017-08-06T10:59:28.366Z,26.48
2017-08-06T11:00:28.402Z,26.45
2017-08-06T11:01:28.430Z,26.5
2017-08-06T11:02:28.480Z,26.43
2017-08-06T11:03:28.188Z,26.47
2017-08-06T11:04:28.460Z,26.52
2017-08-06T11:05:28.234Z,26.4
2017-08-06T11:06:28.573Z,26.44
2017-08-06T11:07:28.603Z,26.51
2017-08-06T11:08:28.629Z,26.55
2017-08-06T11:09:28.969Z,26.54
2017-08-06T11:10:28.698Z,26.54
2017-08-06T11:11:28.407Z,26.54
2017-08-06T11:12:28.755Z,26.62
2017-08-06T11:13:28.484Z,26.57
2017-08-06T11:14:28.491Z,26.52
2017-08-06T11:15:28.214Z,26.5
2017-08-06T11:16:28.871Z,26.54
2017-08-06T11:17:28.904Z,26.55
2017-08-06T11:18:28.297Z,26.54
2017-08-06T11:19:29.198Z,26.62
2017-08-06T11:20:28.662Z,26.58
2017-08-06T11:21:28.694Z,26.65
2017-08-06T11:22:28.416Z,26.6
2017-08-06T11:23:29.069Z,26.62
2017-08-06T11:24:29.024Z,26.69
2017-08-06T11:25:28.810Z,26.67
2017-08-06T11:26:29.154Z,26.69
2017-08-06T11:27:29.180Z,26.69
2017-08-06T11:28:29.212Z,26.66
2017-08-06T11:29:29.537Z,26.63
2017-08-06T11:30:28.642Z,26.62
2017-08-06T11:31:28.995Z,26.66
2017-08-06T11:32:29.328Z,26.63
2017-08-06T11:33:29.352Z,26.63
2017-08-06T11:34:29.649Z,26.77
2017-08-06T11:35:29.418Z,26.73
2017-08-06T11:36:28.810Z,26.82
2017-08-06T11:37:29.467Z,26.76
2017-08-06T11:38:29.185Z,26.81
2017-08-06T11:39:29.773Z,26.89
2017-08-06T11:40:29.546Z,26.97
2017-08-06T11:41:29.583Z,26.97
2017-08-06T11:42:29.305Z,27.04
2017-08-06T11:43:29.678Z,27.04
2017-08-06T11:44:29.969Z,27.17
2017-08-06T11:45:29.689Z,27.29
2017-08-06T11:46:29.098Z,27.43
2017-08-06T11:47:29.759Z,27.6
2017-08-06T11:48:29.785Z,27.74
2017-08-06T11:49:30.075Z,27.94
2017-08-06T11:50:29.226Z,28.07
2017-08-06T11:51:29.255Z,28.21
2017-08-06T11:52:29.588Z,28.44
2017-08-06T11:53:29.942Z,28.49
2017-08-06T11:54:29.597Z,28.68
2017-08-06T11:55:30.000Z,28.76
2017-08-06T11:56:30.038Z,28.86
2017-08-06T11:57:30.057Z,28.88
2017-08-06T11:58:30.086Z,28.96
2017-08-06T11:59:30.386Z,29.18
2017-08-06T12:00:30.143Z,29.18
2017-08-06T12:01:29.863Z,29.24
2017-08-06T12:02:30.208Z,29.33
2017-08-06T12:03:29.954Z,29.42
2017-08-06T12:04:29.959Z,29.64
2017-08-06T12:05:30.304Z,29.78
2017-08-06T12:06:29.716Z,29.89
2017-08-06T12:07:30.048Z,29.98
2017-08-06T12:08:30.087Z,30.13
2017-08-06T12:09:30.113Z,30.23
2017-08-06T12:10:30.148Z,30.35
2017-08-06T12:11:30.180Z,30.51
2017-08-06T12:12:30.520Z,30.67
2017-08-06T12:13:30.553Z,30.69
2017-08-06T12:14:30.590Z,30.86
2017-08-06T12:15:30.639Z,30.92
2017-08-06T12:16:30.652Z,31.06
2017-08-06T12:17:30.376Z,31.12
2017-08-06T12:18:30.090Z,31.31
2017-08-06T12:19:30.746Z,31.29
2017-08-06T12:20:30.463Z,31.41
2017-08-06T12:21:30.180Z,31.26
2017-08-06T12:22:30.290Z,31.35
2017-08-06T12:23:30.872Z,31.2
2017-08-06T12:24:30.290Z,31.16
2017-08-06T12:25:30.623Z,31.09
2017-08-06T12:26:30.664Z,31.01
2017-08-06T12:27:31.003Z,30.92
2017-08-06T12:28:30.415Z,30.91
2017-08-06T12:29:30.759Z,30.95
2017-08-06T12:30:30.795Z,30.95
2017-08-06T12:31:30.818Z,31.06
2017-08-06T12:32:31.300Z,31.17
2017-08-06T12:33:31.209Z,31.2
2017-08-06T12:34:31.003Z,31.25
2017-08-06T12:35:31.268Z,31.34
2017-08-06T12:36:31.307Z,31.56
2017-08-06T12:37:31.320Z,31.54
2017-08-06T12:38:30.737Z,31.69
2017-08-06T12:39:30.772Z,31.75
2017-08-06T12:40:30.811Z,31.81
2017-08-06T12:41:31.457Z,31.89
2017-08-06T12:42:31.493Z,32.03
2017-08-06T12:43:31.210Z,32.19
2017-08-06T12:44:31.634Z,32.19
2017-08-06T12:45:31.820Z,32.14
2017-08-06T12:46:31.637Z,32.14
2017-08-06T12:47:31.653Z,31.99
2017-08-06T12:48:31.131Z,31.95
2017-08-06T12:49:31.723Z,31.78
2017-08-06T12:50:31.444Z,31.69
2017-08-06T12:51:31.793Z,31.53
2017-08-06T12:52:31.516Z,31.43
2017-08-06T12:53:31.915Z,31.2
2017-08-06T12:54:31.883Z,31.1
2017-08-06T12:55:31.920Z,30.92